Tiempo atmosférico en la estación meteorológica de Planoles, Girona (1149 m.)



Fecha
DESCASC
Temp. máxima en grados centígrados (hora)
DESCASC
Temp. mínima en grados centígrados (hora)
DESCASC
Temp. media en grados centígrados
DESCASC
Racha de viento máxima en m/sg (hora)
DESCASC
Velocidad máxima media en intervalos de 10 minutos(hora)
DESCASC
Precipitaciones diarias en mm
DESCASC
Precipitaciones de 00:00 a 06:00 en mm
DESCASC
Precipitaciones de 06:00 a 12:00 en mm
DESCASC
Precipitaciones de 12:00 a 18:00 en mm
DESCASC
Precipitaciones de 18:00 a 24:00 en mm
DESCASC
07-01-2021 1.4 (15:20) -7.7 (-00:0) -3.1 4.44 (16:00) 2.78 (02:10) 0 0 0 0 0
21-01-2021 10.8 (12:40) 2.3 (00:00) 6.6 16.11 (15:20) 8.33 (15:20) 0 0 0 0 0
20-01-2021 9.3 (13:50) -0.3 (00:00) 4.5 9.72 (23:50) 5.28 (14:50) 0 0 0 0 0
19-01-2021 10.8 (14:10) -2.7 (-00:0) 4.1 5 (15:00) 2.5 (13:00) 0 0 0 0 0
18-01-2021 9.5 (13:50) -2.3 (-00:0) 3.6 10 (00:20) 5.28 (00:20) 0 0 0 0 0
17-01-2021 13.5 (15:30) 0.6 (00:00) 7.1 14.44 (06:20) 7.22 (12:50) 0 0 0 0 0
16-01-2021 9.5 (13:40) -2 (-00:0) 3.8 9.17 (17:30) 4.72 (17:40) 0 0 0 0 0
15-01-2021 9.3 (13:20) 2.8 (00:00) 6.1 19.17 (20:50) 11.94 (20:50) 0 0 0 0 0
14-01-2021 14.4 (13:00) 0.4 (00:00) 7.4 14.72 (19:40) 7.78 (13:40) 0 0 0 0 0
13-01-2021 14.6 (14:00) 0.1 (00:00) 7.4 11.11 (11:20) 7.22 (11:30) 0 0 0 0 0
12-01-2021 10.5 (13:00) -5.1 (-00:0) 2.7 12.78 (23:10) 6.67 (21:10) 0 0 0 0 0
11-01-2021 6.2 (13:20) -6.6 (-00:0) -0.2 5.28 (21:00) 3.06 (20:50) 0 0 0 0 0
08-01-2021 6.1 (14:00) -5.9 (-00:0) 0.1 6.11 (14:30) 3.61 (14:30) 0 0 0 0 0
23-12-2020 16.8 (13:50) 4.8 (00:00) 10.8 11.67 (13:00) 6.11 (12:20) 0 0 0 0 0
06-01-2021 4.1 (13:40) -8.6 (-00:0) -2.3 6.67 (14:10) 3.89 (14:10) 0 0 0 0 0
05-01-2021 0.7 (13:30) -8 (-00:0) -3.7 5.83 (14:40) 3.33 (00:30) 0 0 0 0 0
04-01-2021 2.4 (14:00) -7 (-00:0) -2.3 5.56 (13:00) 3.61 (21:30) 0 0 0 0 0
03-01-2021 5.1 (12:00) -6.2 (-00:0) -0.5 8.61 (13:00) 4.44 (12:30) 0 0 0 0 0
02-01-2021 3 (12:30) -5.2 (-00:0) -1.1 22.78 (19:40) 6.11 (15:50) 0 0 0 0 0
01-01-2021 6 (13:10) -3.5 (-00:0) 1.3 5.83 (16:10) 2.78 (16:30) 0 0 0 0 0
31-12-2020 6.2 (14:00) -2.8 (-00:0) 1.7 5 (14:20) 3.06 (00:50) 0 0 0 0 0
30-12-2020 4.5 (13:20) -3.2 (-00:0) 0.6 11.67 (14:30) 5.83 (11:10) 0 0 0 0 0
29-12-2020 6.1 (15:30) -2.9 (-00:0) 1.6 9.72 (15:10) 4.72 (14:30) 0 0 0 0 0
28-12-2020 5.7 (14:50) -1.8 (-00:0) 1.9 20.28 (20:30) 10 (20:30) 0 0 0 0 0
27-12-2020 5 (11:30) -2.7 (-00:0) 1.1 16.11 (22:10) 8.61 (22:10) 0 0 0 0 0
26-12-2020 7.3 (13:20) -2.7 (-00:0) 2.3 23.89 (05:20) 12.22 (05:20) 0 0 0 0 0
25-12-2020 2.1 (04:10) -3 (-00:0) -0.5 26.67 (11:00) 10 (08:50) 0 0 0 0 0
24-12-2020 8.6 (12:50) 1 (00:00) 4.8 6.67 (14:50) 2.78 (15:00) 0 0 0 0 0
10-01-2021 2.3 (15:50) -0.9 (08:40) 0.7 3.61 (16:40) 1.94 (01:10) 8.2 5 1.8 1.2 0.2
09-01-2021 1.6 (14:40) -2.3 (-00:0) -0.3 4.72 (16:20) 3.06 (02:10) 8.8 3.2 2.8 0.4 2.4

Gráficas

Temp. máximas Temp. mínimas Temp. medias Precipitaciones Rachas de viento máximas Velocidades máximas media en intervalos de 10 minutos

Datos horarios

Fecha y hora oficial Temperatura (ºC) Velocidad del viento (km/h) Dirección del viento Racha (km/h) Dirección de racha Precipitación (mm) Presión (hPa) Tendencia (hPa) Humedad (%)
2021-01-21 23:00:00 7.1 16 Oeste 33 Oeste 0 -- -- 72
2021-01-21 22:00:00 7.1 17 Oeste 35 Oeste 0 -- -- 68
2021-01-21 21:00:00 7.1 13 Oeste 41 Oeste 0 -- -- 67
2021-01-21 20:00:00 7 13 Oeste 39 Sudoeste 0 -- -- 64
2021-01-21 19:00:00 7.6 16 Sudoeste 43 Sudoeste 0 -- -- 60
2021-01-21 18:00:00 8 19 Oeste 56 Sudoeste 0 -- -- 58
2021-01-21 17:00:00 8.5 18 Oeste 39 Sudoeste 0 -- -- 54
2021-01-21 16:00:00 8.6 23 Oeste 58 Oeste 0 -- -- 53
2021-01-21 15:00:00 9.6 24 Oeste 52 Oeste 0 -- -- 49
2021-01-21 14:00:00 9.6 14 Oeste 33 Oeste 0 -- -- 57
2021-01-21 13:00:00 10.4 10 Este 16 Este 0 -- -- 58
2021-01-21 12:00:00 10.1 8 Este 16 Este 0 -- -- 56
2021-01-21 11:00:00 8.1 13 Oeste 24 Oeste 0 -- -- 61
2021-01-21 10:00:00 6 4 Oeste 13 Sudoeste 0 -- -- 69
2021-01-21 09:00:00 3.3 3 Sudeste 8 Este 0 -- -- 78
2021-01-21 08:00:00 3.3 0 Calma 22 Noroeste 0 -- -- 78
2021-01-21 07:00:00 3.8 5 Norte 33 Oeste 0 -- -- 75
2021-01-21 06:00:00 4.2 6 Noroeste 43 Oeste 0 -- -- 76
2021-01-21 05:00:00 5.3 25 Oeste 50 Oeste 0 -- -- 73
2021-01-21 04:00:00 6.1 26 Sudoeste 43 Sudoeste 0 -- -- 70
2021-01-21 03:00:00 6 18 Oeste 47 Sudoeste 0 -- -- 71
2021-01-21 02:00:00 6.2 21 Oeste 42 Oeste 0 -- -- 70
2021-01-21 01:00:00 5.8 21 Sudoeste 43 Oeste 0 -- -- 68
2021-01-21 00:00:00 5.8 17 Oeste 35 Oeste 0 -- -- 68
2021-01-20 23:00:00 5.9 13 Oeste 28 Sudoeste 0 -- -- 65
2021-01-20 22:00:00 5.2 8 Oeste 21 Sudoeste 0 -- -- 68
2021-01-20 21:00:00 4.8 7 Este 18 Oeste 0 -- -- 77
2021-01-20 20:00:00 5.4 12 Sudoeste 27 Sudoeste 0 -- -- 71
2021-01-20 19:00:00 3.9 3 Nordeste 12 Este 0 -- -- 83
2021-01-20 18:00:00 4.5 6 Este 22 Oeste 0 -- -- 80
2021-01-20 17:00:00 5.4 7 Oeste 23 Noroeste 0 -- -- 69
2021-01-20 16:00:00 6.1 8 Oeste 25 Oeste 0 -- -- 64
2021-01-20 15:00:00 5.5 19 Sudoeste 32 Sudoeste 0 -- -- 69
2021-01-20 14:00:00 9.1 12 Sudeste 21 Este 0 -- -- 60
2021-01-20 13:00:00 7.5 7 Este 15 Este 0 -- -- 58
2021-01-20 12:00:00 4.6 4 Este 12 Este 0 -- -- 66
2021-01-20 11:00:00 3.8 3 Sudeste 9 Sudeste 0 -- -- 57
2021-01-20 10:00:00 1.7 3 Este 7 Este 0 -- -- 57
2021-01-20 09:00:00 0.7 2 Oeste 5 Noroeste 0 -- -- 54
2021-01-20 08:00:00 -0.3 0 Calma 6 Este 0 -- -- 57
2021-01-20 07:00:00 0.9 4 Este 8 Este 0 -- -- 51
2021-01-20 06:00:00 3.7 4 Noroeste 14 Noroeste 0 -- -- 43
2021-01-20 05:00:00 5.5 9 Noroeste 15 Noroeste 0 -- -- 37
2021-01-20 04:00:00 6.9 11 Noroeste 29 Oeste 0 -- -- 35
2021-01-20 03:00:00 6.4 6 Noroeste 23 Oeste 0 -- -- 31
2021-01-20 02:00:00 4.7 8 Noroeste 16 Noroeste 0 -- -- 29
2021-01-20 01:00:00 1.8 5 Noroeste 10 Noroeste 0 -- -- 39
2021-01-20 00:00:00 1 2 Nordeste 6 Este 0 -- -- 48
2021-01-19 23:00:00 -0.2 2 Este 6 Oeste 0 -- -- 71
2021-01-19 22:00:00 -0.2 0 Calma 4 Oeste 0 -- -- 73
2021-01-19 21:00:00 0.2 0 Calma 5 Noroeste 0 -- -- 77
2021-01-19 20:00:00 1.2 3 Oeste 6 Noroeste 0 -- -- 73
2021-01-19 19:00:00 2.3 3 Oeste 8 Noroeste 0 -- -- 70
2021-01-19 18:00:00 4.1 3 Noroeste 6 Noroeste 0 -- -- 67
2021-01-19 17:00:00 7.1 0 Calma 10 Sudeste 0 -- -- 57
2021-01-19 16:00:00 8.8 7 Sudeste 15 Sudeste 0 -- -- 53
2021-01-19 15:00:00 10.4 7 Este 18 Este 0 -- -- 49
2021-01-19 14:00:00 10.2 7 Este 15 Este 0 -- -- 47
2021-01-19 13:00:00 9.5 9 Este 15 Este 0 -- -- 42
2021-01-19 12:00:00 8.2 5 Este 10 Sudeste 0 -- -- 39
2021-01-19 11:00:00 6.6 4 Sudeste 6 Sudeste 0 -- -- 41
2021-01-19 10:00:00 4.7 0 Calma 5 Noroeste 0 -- -- 44
2021-01-19 09:00:00 0.2 0 Calma 2 Sur 0 -- -- 52
2021-01-19 08:00:00 -0.9 0 Calma 6 Noroeste 0 -- -- 53
2021-01-19 07:00:00 -1.1 3 Noroeste 6 Noroeste 0 -- -- 53
2021-01-19 06:00:00 -1.3 0 Calma 4 Oeste 0 -- -- 54
2021-01-19 05:00:00 -1.5 0 Calma 8 Noroeste 0 -- -- 56
2021-01-19 04:00:00 -2.4 0 Calma 6 Noroeste 0 -- -- 59
2021-01-19 03:00:00 -2.6 2 Noroeste 4 Noroeste 0 -- -- 61
2021-01-19 02:00:00 -2.7 3 Noroeste 5 Noroeste 0 -- -- 62
2021-01-19 01:00:00 -2.4 3 Noroeste 10 Noroeste 0 -- -- 62
2021-01-19 00:00:00 -2.1 4 Noroeste 9 Noroeste 0 -- -- 66
2021-01-18 23:00:00 -2.2 0 Calma 11 Noroeste 0 -- -- 74
2021-01-18 22:00:00 -1.2 7 Noroeste 13 Noroeste 0 -- -- 66
2021-01-18 21:00:00 -1 3 Oeste 16 Noroeste 0 -- -- 74
2021-01-18 20:00:00 -0.3 5 Noroeste 12 Noroeste 0 -- -- 73
2021-01-18 19:00:00 0.7 4 Noroeste 12 Noroeste 0 -- -- 72
2021-01-18 18:00:00 2.6 4 Noroeste 7 Noroeste 0 -- -- 69
2021-01-18 17:00:00 4.8 4 Sudeste 12 Este 0 -- -- 65
2021-01-18 16:00:00 7.8 8 Sudeste 19 Este 0 -- -- 55
2021-01-18 15:00:00 8.9 9 Este 25 Este 0 -- -- 47
2021-01-18 14:00:00 9.5 8 Sudeste 18 Sudeste 0 -- -- 44
2021-01-18 13:00:00 8.4 8 Sudeste 14 Este 0 -- -- 40
2021-01-18 12:00:00 7.3 5 Sudeste 9 Sudeste 0 -- -- 33
2021-01-18 11:00:00 4.8 2 Sur 4 Sudoeste 0 -- -- 36
2021-01-18 10:00:00 1.4 2 Noroeste 6 Este 0 -- -- 33
2021-01-18 09:00:00 0.2 3 Noroeste 9 Oeste 0 -- -- 36
2021-01-18 08:00:00 0.4 3 Nordeste 10 Este 0 -- -- 36
2021-01-18 07:00:00 0.6 0 Calma 13 Este 0 -- -- 34
2021-01-18 06:00:00 0.8 3 Nordeste 8 Este 0 -- -- 33
2021-01-18 05:00:00 0.9 4 Este 8 Oeste 0 -- -- 37
2021-01-18 04:00:00 2.6 4 Este 25 Noroeste 0 -- -- 33
2021-01-18 03:00:00 4.2 12 Noroeste 29 Noroeste 0 -- -- 23
2021-01-18 02:00:00 4.5 12 Oeste 28 Oeste 0 -- -- 26
2021-01-18 01:00:00 5 13 Sudoeste 36 Sudoeste 0 -- -- 21
2021-01-18 00:00:00 5.5 19 Sudoeste 42 Sudoeste 0 -- -- 20
2021-01-17 23:00:00 5.7 12 Sudoeste 32 Oeste 0 -- -- 22
2021-01-17 22:00:00 6.5 14 Noroeste 35 Noroeste 0 -- -- 18
2021-01-17 21:00:00 6 11 Norte 39 Noroeste 0 -- -- 27
2021-01-17 20:00:00 6.6 14 Noroeste 32 Oeste 0 -- -- 36
2021-01-17 19:00:00 7.7 15 Oeste 30 Oeste 0 -- -- 51
2021-01-17 18:00:00 8.6 14 Noroeste 36 Noroeste 0 -- -- 52
2021-01-17 17:00:00 10.5 7 Noroeste 40 Oeste 0 -- -- 48
2021-01-17 16:00:00 12.9 12 Oeste 38 Oeste 0 -- -- 44
2021-01-17 15:00:00 12.9 13 Oeste 47 Oeste 0 -- -- 45
2021-01-17 14:00:00 12.9 22 Oeste 47 Oeste 0 -- -- 45
2021-01-17 13:00:00 12.6 22 Oeste 46 Noroeste 0 -- -- 46
2021-01-17 12:00:00 12.4 19 Oeste 52 Sudoeste 0 -- -- 46
2021-01-17 11:00:00 11.4 14 Oeste 42 Sudoeste 0 -- -- 48
2021-01-17 10:00:00 8.1 5 Este 19 Noroeste 0 -- -- 61
2021-01-17 09:00:00 6.9 4 Noroeste 17 Noroeste 0 -- -- 61
2021-01-17 08:00:00 7.7 4 Sur 29 Sudoeste 0 -- -- 57
2021-01-17 07:00:00 8.3 4 Este 52 Oeste 0 -- -- 55
2021-01-17 06:00:00 8.8 18 Noroeste 43 Oeste 0 -- -- 50
2021-01-17 05:00:00 7 14 Noroeste 28 Noroeste 0 -- -- 54
2021-01-17 04:00:00 5.9 12 Noroeste 21 Noroeste 0 -- -- 57
2021-01-17 03:00:00 5.2 13 Noroeste 21 Oeste 0 -- -- 59
2021-01-17 02:00:00 0.7 3 Noroeste 10 Nordeste 0 -- -- 70
2021-01-17 01:00:00 0.8 6 Sudeste 13 Norte 0 -- -- 68
2021-01-17 00:00:00 0.7 4 Sur 11 Norte 0 -- -- 67
2021-01-16 23:00:00 1.1 3 Norte 10 Norte 0 -- -- 68
2021-01-16 22:00:00 1.3 3 Norte 8 Norte 0 -- -- 68
2021-01-16 21:00:00 2.1 4 Norte 10 Nordeste 0 -- -- 66
2021-01-16 20:00:00 3 4 Este 10 Este 0 -- -- 61
2021-01-16 19:00:00 3.9 8 Este 17 Este 0 -- -- 53
2021-01-16 18:00:00 6.4 4 Sudeste 33 Oeste 0 -- -- 40
2021-01-16 17:00:00 6.5 4 Este 17 Sudeste 0 -- -- 38
2021-01-16 16:00:00 6.7 4 Este 10 Sudeste 0 -- -- 36
2021-01-16 15:00:00 6.4 3 Sudoeste 12 Norte 0 -- -- 36
2021-01-16 14:00:00 7.9 6 Oeste 22 Sudeste 0 -- -- 30
2021-01-16 13:00:00 8.7 9 Sudeste 19 Este 0 -- -- 30
2021-01-16 12:00:00 6.9 5 Este 10 Este 0 -- -- 42
2021-01-16 11:00:00 3.7 5 Sur 10 Sudeste 0 -- -- 50
2021-01-16 10:00:00 1.8 0 Calma 8 Oeste 0 -- -- 56
2021-01-16 09:00:00 -1.4 3 Oeste 17 Sudeste 0 -- -- 62
2021-01-16 08:00:00 -1.4 7 Este 18 Oeste 0 -- -- 57
2021-01-16 07:00:00 -0.4 6 Este 14 Nordeste 0 -- -- 47
2021-01-16 06:00:00 -1.3 6 Este 15 Sudeste 0 -- -- 55
2021-01-16 05:00:00 -1.2 8 Este 18 Este 0 -- -- 61
2021-01-16 04:00:00 -2 5 Nordeste 15 Sudeste 0 -- -- 71
2021-01-16 03:00:00 -1.2 5 Noroeste 19 Sudoeste 0 -- -- 73
2021-01-16 02:00:00 -0.3 5 Nordeste 20 Oeste 0 -- -- 78
2021-01-16 01:00:00 0.9 6 Este 19 Este 0 -- -- 67
2021-01-16 00:00:00 2.8 4 Sudeste 22 Este 0 -- -- 47
2021-01-15 23:00:00 4.8 9 Nordeste 46 Norte 0 -- -- 35
2021-01-15 22:00:00 4.5 19 Noroeste 60 Oeste 0 -- -- 41
2021-01-15 21:00:00 4.4 37 Noroeste 69 Oeste 0 -- -- 42
2021-01-15 20:00:00 3.7 23 Noroeste 48 Oeste 0 -- -- 44
2021-01-15 19:00:00 2.9 14 Noroeste 52 Noroeste 0 -- -- 48
2021-01-15 18:00:00 4.3 22 Noroeste 60 Noroeste 0 -- -- 35
2021-01-15 17:00:00 5.4 32 Noroeste 55 Noroeste 0 -- -- 31
2021-01-15 16:00:00 7.1 23 Oeste 53 Noroeste 0 -- -- 32
2021-01-15 15:00:00 7.8 29 Oeste 67 Noroeste 0 -- -- 33
2021-01-15 14:00:00 8 31 Oeste 59 Oeste 0 -- -- 33
2021-01-15 13:00:00 8.9 15 Oeste 38 Oeste 0 -- -- 32
2021-01-15 12:00:00 8.8 18 Noroeste 33 Norte 0 -- -- 27
2021-01-15 11:00:00 7.6 8 Sudeste 17 Sudeste 0 -- -- 38
2021-01-15 10:00:00 6.5 11 Este 23 Este 0 -- -- 37
2021-01-15 09:00:00 4.2 6 Este 28 Nordeste 0 -- -- 40
2021-01-15 08:00:00 5.9 6 Este 46 Oeste 0 -- -- 29
2021-01-15 07:00:00 7.6 18 Noroeste 48 Noroeste 0 -- -- 26
2021-01-15 06:00:00 3.9 9 Norte 40 Oeste 0 -- -- 35
2021-01-15 05:00:00 6 27 Oeste 57 Noroeste 0 -- -- 35
2021-01-15 04:00:00 3.9 7 Este 48 Noroeste 0 -- -- 45
2021-01-15 03:00:00 6.5 18 Noroeste 51 Oeste 0 -- -- 34
2021-01-15 02:00:00 4.8 5 Nordeste 51 Oeste 0 -- -- 49
2021-01-15 01:00:00 6.4 25 Noroeste 53 Noroeste 0 -- -- 43
2021-01-15 00:00:00 6.7 26 Noroeste 47 Noroeste 0 -- -- 47
2021-01-14 23:00:00 7.1 15 Norte 37 Noroeste 0 -- -- 48
2021-01-14 22:00:00 6.8 9 Norte 28 Noroeste 0 -- -- 49
2021-01-14 21:00:00 7 16 Noroeste 28 Oeste 0 -- -- 45
2021-01-14 20:00:00 7.7 16 Oeste 53 Oeste 0 -- -- 41
2021-01-14 19:00:00 6.8 11 Este 27 Sur 0 -- -- 31
2021-01-14 18:00:00 8.5 3 Sudoeste 27 Sudoeste 0 -- -- 22
2021-01-14 17:00:00 10 17 Sudoeste 33 Sudoeste 0 -- -- 19
2021-01-14 16:00:00 12.3 18 Sudoeste 38 Oeste 0 -- -- 20
2021-01-14 15:00:00 13.5 20 Oeste 39 Oeste 0 -- -- 17
2021-01-14 14:00:00 13.8 21 Oeste 43 Oeste 0 -- -- 16
2021-01-14 13:00:00 14.4 18 Oeste 32 Oeste 0 -- -- 15
2021-01-14 12:00:00 13.8 15 Oeste 38 Oeste 0 -- -- 15
2021-01-14 11:00:00 11.4 10 Noroeste 17 Noroeste 0 -- -- 20
2021-01-14 10:00:00 7.9 6 Norte 20 Noroeste 0 -- -- 26
2021-01-14 09:00:00 2.3 6 Este 12 Este 0 -- -- 42
2021-01-14 08:00:00 1.3 3 Oeste 11 Nordeste 0 -- -- 46
2021-01-14 07:00:00 2.7 0 Calma 19 Oeste 0 -- -- 40
2021-01-14 06:00:00 3.1 8 Noroeste 23 Oeste 0 -- -- 37
2021-01-14 05:00:00 5.2 9 Noroeste 25 Noroeste 0 -- -- 31
2021-01-14 04:00:00 5 9 Noroeste 22 Noroeste 0 -- -- 32
2021-01-14 03:00:00 2.5 6 Noroeste 12 Sudoeste 0 -- -- 43
2021-01-14 02:00:00 4.1 7 Norte 17 Norte 0 -- -- 38
2021-01-14 01:00:00 1.2 3 Noroeste 6 Sudoeste 0 -- -- 52
2021-01-14 00:00:00 0.4 3 Noroeste 6 Oeste 0 -- -- 60
2021-01-13 23:00:00 0.9 4 Noroeste 8 Noroeste 0 -- -- 60
2021-01-13 22:00:00 1 0 Calma 6 Este 0 -- -- 62
2021-01-13 21:00:00 1.5 2 Oeste 5 Oeste 0 -- -- 61
2021-01-13 20:00:00 2 0 Calma 5 Este 0 -- -- 61
2021-01-13 19:00:00 3.4 3 Este 13 Noroeste 0 -- -- 60
2021-01-13 18:00:00 4.7 7 Noroeste 14 Noroeste 0 -- -- 60
2021-01-13 17:00:00 7.9 4 Noroeste 8 Noroeste 0 -- -- 47
2021-01-13 16:00:00 11 3 Sudeste 18 Sudeste 0 -- -- 38
2021-01-13 15:00:00 12 7 Sudeste 22 Este 0 -- -- 37
2021-01-13 14:00:00 14.6 9 Este 20 Sudoeste 0 -- -- 31
2021-01-13 13:00:00 13.9 7 Este 21 Este 0 -- -- 35
2021-01-13 12:00:00 12.9 9 Oeste 40 Sudoeste 0 -- -- 30
2021-01-13 11:00:00 10.6 12 Sudoeste 33 Sudoeste 0 -- -- 35
2021-01-13 10:00:00 8.5 19 Noroeste 34 Oeste 0 -- -- 39
2021-01-13 09:00:00 1.2 5 Este 9 Nordeste 0 -- -- 67
2021-01-13 08:00:00 0.3 4 Este 7 Sudoeste 0 -- -- 69
2021-01-13 07:00:00 0.1 5 Noroeste 9 Noroeste 0 -- -- 69
2021-01-13 06:00:00 1.1 5 Noroeste 9 Sudeste 0 -- -- 67
2021-01-13 05:00:00 1.9 4 Nordeste 8 Norte 0 -- -- 63
2021-01-13 04:00:00 2.4 3 Oeste 7 Noroeste 0 -- -- 63
2021-01-13 03:00:00 3.7 5 Sudeste 21 Oeste 0 -- -- 58
2021-01-13 02:00:00 5.2 10 Noroeste 33 Oeste 0 -- -- 50
2021-01-13 01:00:00 5.4 19 Noroeste 35 Oeste 0 -- -- 53
2021-01-13 00:00:00 6.2 13 Noroeste 46 Oeste 0 -- -- 51
2021-01-12 23:00:00 6.4 21 Oeste 38 Oeste 0 -- -- 48
2021-01-12 22:00:00 5.9 21 Noroeste 36 Oeste 0 -- -- 42
2021-01-12 21:00:00 5.1 20 Noroeste 32 Oeste 0 -- -- 32
2021-01-12 20:00:00 3.1 15 Noroeste 22 Oeste 0 -- -- 45
2021-01-12 19:00:00 0.6 5 Noroeste 13 Noroeste 0 -- -- 71
2021-01-12 18:00:00 1.2 4 Nordeste 9 Norte 0 -- -- 72
2021-01-12 17:00:00 2.8 4 Este 11 Este 0 -- -- 63
2021-01-12 16:00:00 4.5 2 Este 18 Este 0 -- -- 54
2021-01-12 15:00:00 6.7 6 Sudeste 22 Oeste 0 -- -- 50
2021-01-12 14:00:00 8.5 12 Oeste 21 Sudoeste 0 -- -- 30
2021-01-12 13:00:00 10.5 3 Sudeste 9 Sudeste 0 -- -- 43
2021-01-12 12:00:00 6.4 3 Este 8 Este 0 -- -- 54
2021-01-12 11:00:00 4.6 0 Calma 6 Sudeste 0 -- -- 57
2021-01-12 10:00:00 3 3 Oeste 9 Noroeste 0 -- -- 59
2021-01-12 09:00:00 -1 3 Nordeste 10 Este 0 -- -- 69
2021-01-12 08:00:00 -1.5 4 Este 13 Este 0 -- -- 71
2021-01-12 07:00:00 -0.7 6 Oeste 14 Oeste 0 -- -- 66
2021-01-12 06:00:00 -0.8 4 Noroeste 12 Noroeste 0 -- -- 58
2021-01-12 05:00:00 -1.9 3 Este 14 Oeste 0 -- -- 72
2021-01-12 04:00:00 -2.5 3 Oeste 12 Sudoeste 0 -- -- 73
2021-01-12 03:00:00 -1.2 6 Norte 23 Noroeste 0 -- -- 59
2021-01-12 02:00:00 -3.1 5 Este 22 Oeste 0 -- -- 66
2021-01-12 01:00:00 -4.4 3 Sudeste 10 Este 0 -- -- 72
2021-01-12 00:00:00 -4.5 3 Este 8 Noroeste 0 -- -- 72
2021-01-11 23:00:00 -4.4 2 Norte 12 Noroeste 0 -- -- 71
2021-01-11 22:00:00 -3.7 2 Sudoeste 16 Noroeste 0 -- -- 71
2021-01-11 21:00:00 -1.4 9 Noroeste 19 Noroeste 0 -- -- 42
2021-01-11 20:00:00 -3.8 5 Nordeste 13 Oeste 0 -- -- 83
2021-01-11 19:00:00 -3.2 6 Noroeste 13 Noroeste 0 -- -- 89
2021-01-11 18:00:00 -1.9 3 Norte 9 Sudoeste 0 -- -- 86
2021-01-11 17:00:00 0.6 4 Sudeste 8 Este 0 -- -- 78
2021-01-11 16:00:00 4.5 4 Sudeste 10 Sudeste 0 -- -- 65
2021-01-11 15:00:00 5.2 5 Sudeste 9 Sudeste 0 -- -- 64
2021-01-11 14:00:00 5.7 3 Sudeste 10 Sudeste 0 -- -- 62
2021-01-11 13:00:00 4.9 3 Sudeste 6 Este 0 -- -- 60
2021-01-11 12:00:00 4.4 0 Calma 5 Sur 0 -- -- 63
2021-01-11 11:00:00 1 3 Sur 7 Sudeste 0 -- -- 71
2021-01-11 10:00:00 -1.8 2 Sudeste 6 Sudeste 0 -- -- 76
2021-01-11 09:00:00 -6 3 Noroeste 7 Norte 0 -- -- 87
2021-01-11 08:00:00 -6.6 3 Noroeste 8 Noroeste 0 -- -- 86
2021-01-11 07:00:00 -6.3 4 Noroeste 10 Noroeste 0 -- -- 84
2021-01-11 06:00:00 -5.9 6 Noroeste 14 Noroeste 0 -- -- 86
2021-01-11 05:00:00 -5.4 4 Noroeste 9 Noroeste 0 -- -- 88
2021-01-11 04:00:00 -4.5 3 Noroeste 9 Noroeste 0 -- -- 87
2021-01-11 03:00:00 -3.6 5 Noroeste 14 Noroeste 0 -- -- 85
2021-01-11 02:00:00 -1.9 9 Noroeste 14 Noroeste 0 -- -- 81
2021-01-11 01:00:00 -0.9 4 Noroeste 9 Noroeste 0 -- -- 96
2021-01-11 00:00:00 -0.7 3 Este 5 Este 0 -- -- 97
2021-01-10 23:00:00 -0.7 0 Calma 4 Norte 0 -- -- 97
2021-01-10 22:00:00 -0.7 4 Sudeste 8 Este 0 -- -- 97
2021-01-10 21:00:00 -0.4 0 Calma 4 Sudeste 0.2 -- -- 96
2021-01-10 20:00:00 -0.2 3 Este 5 Este 0 -- -- 96
2021-01-10 19:00:00 0 0 Calma 7 Este 0 -- -- 96
2021-01-10 18:00:00 0.1 4 Este 13 Sudeste 0 -- -- 96
2021-01-10 17:00:00 0.8 5 Sudeste 13 Sudeste 0 -- -- 93
2021-01-10 16:00:00 2.1 5 Este 8 Este 0 -- -- 88
2021-01-10 15:00:00 1.5 0 Calma 6 Este 0 -- -- 92
2021-01-10 14:00:00 1.8 3 Este 6 Este 0.2 -- -- 87
2021-01-10 13:00:00 1.9 0 Calma 2 Oeste 1 -- -- 86
2021-01-10 12:00:00 0.9 3 Oeste 5 Noroeste 0.6 -- -- 89
2021-01-10 11:00:00 0.2 4 Oeste 9 Noroeste 0 -- -- 87
2021-01-10 10:00:00 -0.4 3 Oeste 6 Noroeste 0.2 -- -- 90
2021-01-10 09:00:00 -0.8 4 Noroeste 10 Noroeste 0.2 -- -- 92
2021-01-10 08:00:00 -0.8 6 Noroeste 12 Noroeste 0.4 -- -- 93
2021-01-10 07:00:00 -0.7 5 Noroeste 10 Noroeste 0.4 -- -- 94
2021-01-10 06:00:00 -0.4 5 Noroeste 9 Noroeste 0.4 -- -- 96
2021-01-10 05:00:00 -0.5 3 Noroeste 7 Oeste 1.6 -- -- 96
2021-01-10 04:00:00 -0.6 0 Calma 10 Oeste 1.2 -- -- 96
2021-01-10 03:00:00 -0.3 3 Noroeste 9 Oeste 0.2 -- -- 94
2021-01-10 02:00:00 -0.4 4 Oeste 12 Oeste 1 -- -- 95
2021-01-10 01:00:00 -0.4 6 Noroeste 10 Noroeste 0.6 -- -- 95
2021-01-10 00:00:00 -0.5 6 Noroeste 10 Oeste 0.6 -- -- 94
2021-01-09 23:00:00 -0.2 4 Oeste 11 Noroeste 0.2 -- -- 93
2021-01-09 22:00:00 0 6 Noroeste 10 Oeste 0 -- -- 91
2021-01-09 21:00:00 0.2 4 Sudeste 14 Este 0.2 -- -- 89
2021-01-09 20:00:00 -0.2 3 Este 16 Este 1.4 -- -- 94
2021-01-09 19:00:00 0.4 7 Sudeste 17 Sudeste 0 -- -- 86
2021-01-09 18:00:00 0.6 5 Noroeste 10 Norte 0 -- -- 87
2021-01-09 17:00:00 0.7 6 Norte 17 Noroeste 0 -- -- 88
2021-01-09 16:00:00 1.3 5 Oeste 13 Este 0 -- -- 87
2021-01-09 15:00:00 1.6 4 Este 9 Sudeste 0.2 -- -- 82
2021-01-09 14:00:00 1.2 3 Noroeste 9 Este 0 -- -- 87
2021-01-09 13:00:00 0.7 3 Nordeste 9 Nordeste 0.2 -- -- 88
2021-01-09 12:00:00 0.3 0 Calma 8 Este 0.2 -- -- 91
2021-01-09 11:00:00 -0.4 0 Calma 5 Norte 0.2 -- -- 93
2021-01-09 10:00:00 -1.3 3 Noroeste 12 Noroeste 0.6 -- -- 95
2021-01-09 09:00:00 -1.8 7 Noroeste 10 Oeste 0.6 -- -- 94
2021-01-09 08:00:00 -2 5 Noroeste 8 Noroeste 0.6 -- -- 93
2021-01-09 07:00:00 -2.2 0 Calma 9 Noroeste 0.6 -- -- 93
2021-01-09 06:00:00 -2.3 0 Calma 6 Oeste 1.2 -- -- 93
2021-01-09 05:00:00 -2.3 3 Noroeste 6 Noroeste 1.4 -- -- 93
2021-01-09 04:00:00 -2.1 3 Noroeste 6 Oeste 0.6 -- -- 91
2021-01-09 03:00:00 -1.8 0 Calma 14 Noroeste 0 -- -- 84
2021-01-09 02:00:00 -1 6 Noroeste 14 Noroeste 0 -- -- 70
2021-01-09 01:00:00 -1.9 2 Sudoeste 9 Oeste 0 -- -- 66
2021-01-09 00:00:00 -2.1 0 Calma 9 Este 0 -- -- 69
2021-01-08 23:00:00 -1.9 0 Calma 4 Sur 0 -- -- 66
2021-01-08 22:00:00 -1.7 0 Calma 4 Nordeste 0 -- -- 64
2021-01-08 21:00:00 -1.2 3 Sudeste 5 Sudeste 0 -- -- 60
2021-01-08 20:00:00 -1.2 0 Calma 4 Este 0 -- -- 60
2021-01-08 19:00:00 -0.8 0 Calma 8 Norte 0 -- -- 57
2021-01-08 18:00:00 0.6 2 Norte 4 Este 0 -- -- 51
2021-01-08 17:00:00 2 0 Calma 16 Este 0 -- -- 47
2021-01-08 16:00:00 3 7 Este 18 Este 0 -- -- 42
2021-01-08 15:00:00 4 12 Este 22 Este 0 -- -- 36
2021-01-08 14:00:00 6.1 8 Este 13 Sudeste 0 -- -- 31
2021-01-08 13:00:00 3.2 5 Sudeste 12 Sudeste 0 -- -- 33
2021-01-08 12:00:00 3.6 4 Sudeste 7 Sudeste 0 -- -- 24
2021-01-08 11:00:00 1.9 3 Sudeste 6 Sudeste 0 -- -- 27
2021-01-08 10:00:00 -1.6 0 Calma 4 Nordeste 0 -- -- 34
2021-01-08 09:00:00 -5.4 2 Oeste 6 Oeste 0 -- -- 40
2021-01-08 08:00:00 -5.6 3 Noroeste 6 Noroeste 0 -- -- 41
2021-01-08 07:00:00 -5.7 3 Oeste 9 Noroeste 0 -- -- 42
2021-01-08 06:00:00 -5.6 0 Calma 7 Noroeste 0 -- -- 42
2021-01-08 05:00:00 -5.7 3 Oeste 5 Noroeste 0 -- -- 42
2021-01-08 04:00:00 -5.2 0 Calma 5 Noroeste 0 -- -- 44
2021-01-08 03:00:00 -5.5 2 Oeste 6 Noroeste 0 -- -- 48
2021-01-08 02:00:00 -5.1 0 Calma 4 Noroeste 0 -- -- 52
2021-01-08 01:00:00 -4.4 0 Calma 6 Noroeste 0 -- -- 60
2021-01-08 00:00:00 -3.7 3 Noroeste 6 Norte 0 -- -- 73
2021-01-07 23:00:00 -3.1 0 Calma 5 Sur 0 -- -- 79
2021-01-07 22:00:00 -2.6 3 Este 5 Nordeste 0 -- -- 79
2021-01-07 21:00:00 -2.2 2 Este 5 Nordeste 0 -- -- 78
2021-01-07 20:00:00 -2 3 Noroeste 5 Sudoeste 0 -- -- 78
2021-01-07 19:00:00 -1.4 2 Nordeste 4 Este 0 -- -- 75
2021-01-07 18:00:00 -0.8 0 Calma 5 Sudeste 0 -- -- 72
2021-01-07 17:00:00 -0.2 0 Calma 16 Este 0 -- -- 68
2021-01-07 16:00:00 0.7 8 Este 16 Este 0 -- -- 63
2021-01-07 15:00:00 1.2 3 Este 13 Este 0 -- -- 46
2021-01-07 14:00:00 1.2 3 Sudeste 10 Este 0 -- -- 49
2021-01-07 13:00:00 0.7 5 Este 7 Este 0 -- -- 48
2021-01-07 12:00:00 -0.3 0 Calma 4 Sudoeste 0 -- -- 54
2021-01-07 11:00:00 -2.5 0 Calma 4 Sudoeste 0 -- -- 68
2021-01-07 10:00:00 -4.2 0 Calma 4 Oeste 0 -- -- 71
2021-01-07 09:00:00 -5.3 5 Oeste 13 Noroeste 0 -- -- 72
2021-01-07 08:00:00 -6.3 7 Noroeste 13 Noroeste 0 -- -- 75
2021-01-07 07:00:00 -6 4 Oeste 11 Noroeste 0 -- -- 69
2021-01-07 06:00:00 -5.6 6 Noroeste 10 Noroeste 0 -- -- 68
2021-01-07 05:00:00 -6.2 3 Oeste 13 Noroeste 0 -- -- 71
2021-01-07 04:00:00 -7 0 Calma 8 Oeste 0 -- -- 74
2021-01-07 03:00:00 -7.4 2 Oeste 15 Noroeste 0 -- -- 77
2021-01-07 02:00:00 -7.3 9 Noroeste 14 Noroeste 0 -- -- 76
2021-01-07 01:00:00 -7.2 2 Oeste 12 Noroeste 0 -- -- 77
2021-01-07 00:00:00 -6.8 5 Noroeste 13 Noroeste 0 -- -- 75
2021-01-06 23:00:00 -6.4 4 Noroeste 10 Noroeste 0 -- -- 76
2021-01-06 22:00:00 -5.8 5 Noroeste 13 Noroeste 0 -- -- 75
2021-01-06 21:00:00 -5.1 0 Calma 12 Noroeste 0 -- -- 74
2021-01-06 20:00:00 -4.2 7 Noroeste 13 Noroeste 0 -- -- 72
2021-01-06 19:00:00 -3.3 4 Noroeste 7 Noroeste 0 -- -- 70
2021-01-06 18:00:00 -2 3 Oeste 7 Noroeste 0 -- -- 66
2021-01-06 17:00:00 -0.3 3 Este 23 Este 0 -- -- 60
2021-01-06 16:00:00 2.8 10 Este 23 Este 0 -- -- 50
2021-01-06 15:00:00 4 12 Este 24 Este 0 -- -- 48
2021-01-06 14:00:00 4 11 Este 22 Este 0 -- -- 48
2021-01-06 13:00:00 3.3 8 Sudeste 15 Este 0 -- -- 44
2021-01-06 12:00:00 2.1 4 Sudeste 10 Sudeste 0 -- -- 39
2021-01-06 11:00:00 -0.2 3 Sur 5 Sudoeste 0 -- -- 46
2021-01-06 10:00:00 -3.1 0 Calma 5 Oeste 0 -- -- 50
2021-01-06 09:00:00 -7.9 0 Calma 9 Noroeste 0 -- -- 62
2021-01-06 08:00:00 -8.2 4 Noroeste 8 Noroeste 0 -- -- 60
2021-01-06 07:00:00 -8.5 2 Este 6 Noroeste 0 -- -- 58
2021-01-06 06:00:00 -8.3 0 Calma 10 Norte 0 -- -- 58
2021-01-06 05:00:00 -8 3 Noroeste 8 Noroeste 0 -- -- 58
2021-01-06 04:00:00 -8.1 2 Nordeste 7 Noroeste 0 -- -- 60
2021-01-06 03:00:00 -8.5 2 Norte 6 Noroeste 0 -- -- 67
2021-01-06 02:00:00 -8.3 0 Calma 5 Oeste 0 -- -- 71
2021-01-06 01:00:00 -8.1 3 Oeste 10 Noroeste 0 -- -- 70
2021-01-06 00:00:00 -8 5 Noroeste 7 Noroeste 0 -- -- 71
2021-01-05 23:00:00 -7.2 2 Norte 10 Noroeste 0 -- -- 70
2021-01-05 22:00:00 -6.6 2 Norte 6 Oeste 0 -- -- 75
2021-01-05 21:00:00 -6 3 Noroeste 13 Noroeste 0 -- -- 76
2021-01-05 20:00:00 -4.5 10 Noroeste 14 Noroeste 0 -- -- 79
2021-01-05 19:00:00 -3.9 4 Noroeste 7 Oeste 0 -- -- 80
2021-01-05 18:00:00 -3.3 0 Calma 12 Este 0 -- -- 84
2021-01-05 17:00:00 -2.2 6 Este 21 Este 0 -- -- 81
2021-01-05 16:00:00 -1 7 Este 19 Este 0 -- -- 75
2021-01-05 15:00:00 -0.6 4 Sudeste 21 Este 0 -- -- 73
2021-01-05 14:00:00 0.4 8 Este 15 Sudeste 0 -- -- 64
2021-01-05 13:00:00 -0.9 3 Sudeste 8 Este 0 -- -- 68
2021-01-05 12:00:00 -1.5 2 Sudeste 10 Sudeste 0 -- -- 69
2021-01-05 11:00:00 -3.2 0 Calma 5 Sudeste 0 -- -- 65
2021-01-05 10:00:00 -3.5 2 Sur 7 Oeste 0 -- -- 68
2021-01-05 09:00:00 -7.7 0 Calma 5 Oeste 0 -- -- 81
2021-01-05 08:00:00 -7.9 2 Oeste 7 Noroeste 0 -- -- 81
2021-01-05 07:00:00 -7.5 0 Calma 6 Noroeste 0 -- -- 81
2021-01-05 06:00:00 -6.9 4 Noroeste 12 Noroeste 0 -- -- 80
2021-01-05 05:00:00 -7.1 4 Noroeste 8 Noroeste 0 -- -- 81
2021-01-05 04:00:00 -6.7 0 Calma 13 Noroeste 0 -- -- 82
2021-01-05 03:00:00 -5.6 10 Noroeste 15 Noroeste 0 -- -- 77
2021-01-05 02:00:00 -6.5 7 Noroeste 13 Noroeste 0 -- -- 80
2021-01-05 01:00:00 -5.7 8 Noroeste 18 Noroeste 0 -- -- 76
2021-01-05 00:00:00 -5.8 8 Noroeste 15 Noroeste 0 -- -- 77
2021-01-04 23:00:00 -5.4 6 Noroeste 17 Noroeste 0 -- -- 75
2021-01-04 22:00:00 -4.8 9 Noroeste 18 Noroeste 0 -- -- 75
2021-01-04 21:00:00 -3.9 6 Noroeste 13 Noroeste 0 -- -- 75
2021-01-04 20:00:00 -3 7 Noroeste 12 Oeste 0 -- -- 75
2021-01-04 19:00:00 -2.7 6 Noroeste 9 Noroeste 0 -- -- 80
2021-01-04 18:00:00 -1.9 2 Noroeste 12 Este 0 -- -- 79
2021-01-04 17:00:00 -0.9 8 Este 18 Este 0 -- -- 75
2021-01-04 16:00:00 0.3 10 Este 19 Este 0 -- -- 71
2021-01-04 15:00:00 0.7 4 Este 12 Sudeste 0 -- -- 65
2021-01-04 14:00:00 2.4 5 Sudeste 19 Este 0 -- -- 56
2021-01-04 13:00:00 2.2 10 Este 20 Este 0 -- -- 58
2021-01-04 12:00:00 0.9 4 Sudeste 9 Sudeste 0 -- -- 53
2021-01-04 11:00:00 -0.3 2 Sur 5 Noroeste 0 -- -- 55
2021-01-04 10:00:00 -4 3 Oeste 8 Noroeste 0 -- -- 66
2021-01-04 09:00:00 -5.8 3 Este 6 Noroeste 0 -- -- 70
2021-01-04 08:00:00 -6 3 Noroeste 9 Noroeste 0 -- -- 69
2021-01-04 07:00:00 -5.8 0 Calma 5 Oeste 0 -- -- 68
2021-01-04 06:00:00 -6 0 Calma 13 Noroeste 0 -- -- 66
2021-01-04 05:00:00 -6 4 Noroeste 13 Noroeste 0 -- -- 65
2021-01-04 04:00:00 -6.8 3 Noroeste 10 Noroeste 0 -- -- 67
2021-01-04 03:00:00 -6.7 2 Oeste 9 Noroeste 0 -- -- 65
2021-01-04 02:00:00 -6.5 2 Noroeste 8 Este 0 -- -- 64
2021-01-04 01:00:00 -6.2 4 Este 8 Nordeste 0 -- -- 65
2021-01-04 00:00:00 -6.1 2 Oeste 7 Norte 0 -- -- 66
2021-01-03 23:00:00 -5.9 0 Calma 5 Noroeste 0 -- -- 70
2021-01-03 22:00:00 -5.6 3 Noroeste 13 Noroeste 0 -- -- 72
2021-01-03 21:00:00 -4.8 5 Noroeste 13 Noroeste 0 -- -- 66
2021-01-03 20:00:00 -4.1 8 Noroeste 12 Noroeste 0 -- -- 66
2021-01-03 19:00:00 -3.1 2 Noroeste 8 Norte 0 -- -- 64
2021-01-03 18:00:00 -2.1 3 Noroeste 6 Noroeste 0 -- -- 63
2021-01-03 17:00:00 -0.3 0 Calma 18 Este 0 -- -- 56
2021-01-03 16:00:00 2.6 11 Este 22 Este 0 -- -- 49
2021-01-03 15:00:00 4 9 Este 23 Este 0 -- -- 48
2021-01-03 14:00:00 3.8 12 Este 28 Este 0 -- -- 44
2021-01-03 13:00:00 3.9 15 Este 31 Este 0 -- -- 49
2021-01-03 12:00:00 5.1 5 Sudeste 19 Sudoeste 0 -- -- 37
2021-01-03 11:00:00 1.2 9 Oeste 19 Sudoeste 0 -- -- 42
2021-01-03 10:00:00 0 5 Este 17 Oeste 0 -- -- 50
2021-01-03 09:00:00 -3.1 5 Este 9 Este 0 -- -- 58
2021-01-03 08:00:00 -3.8 4 Este 10 Nordeste 0 -- -- 64
2021-01-03 07:00:00 -3.7 8 Este 17 Norte 0 -- -- 71
2021-01-03 06:00:00 -3.5 5 Nordeste 20 Norte 0 -- -- 55
2021-01-03 05:00:00 -3.3 7 Nordeste 15 Noroeste 0 -- -- 52
2021-01-03 04:00:00 -3.3 6 Este 15 Este 0 -- -- 73
2021-01-03 03:00:00 -2.9 7 Sudeste 12 Este 0 -- -- 80
2021-01-03 02:00:00 -2.5 3 Este 9 Nordeste 0 -- -- 74
2021-01-03 01:00:00 -1.9 4 Este 14 Este 0 -- -- 75
2021-01-03 00:00:00 -1.5 4 Nordeste 14 Sudeste 0 -- -- 70
2021-01-02 23:00:00 -1.1 2 Noroeste 16 Este 0 -- -- 64
2021-01-02 22:00:00 -0.4 8 Sudeste 17 Sudeste 0 -- -- 54
2021-01-02 21:00:00 0.7 8 Este 46 Sudoeste 0 -- -- 38
2021-01-02 20:00:00 1.7 10 Oeste 82 Oeste 0 -- -- 25
2021-01-02 19:00:00 1.1 11 Oeste 56 Oeste 0 -- -- 31
2021-01-02 18:00:00 1.4 14 Oeste 49 Oeste 0 -- -- 24
2021-01-02 17:00:00 1.5 21 Oeste 45 Oeste 0 -- -- 24
2021-01-02 16:00:00 2 15 Sudoeste 54 Oeste 0 -- -- 23
2021-01-02 15:00:00 2.6 14 Noroeste 37 Sudoeste 0 -- -- 22
2021-01-02 14:00:00 2.8 12 Sudoeste 57 Noroeste 0 -- -- 22